Time;durP1;ratioP1;P1;durP2;ratioP2;P2;SDS_P1;SDS_P2;PMS_P1;PMS_P2;Temp;Humidity;BMP_temperature;BMP_pressure;BME280_temperature;BME280_humidity;BME280_pressure;Samples;Min_cycle;Max_cycle;Signal;HPM_P1;HPM_P2
2023/02/11 00:01:05;;;;;;;28.80;17.15;;;;;;;;;;5039290;28;20167;-72
2023/02/11 00:03:31;;;;;;;26.50;16.70;;;;;;;;;;5039437;28;20221;-73
2023/02/11 00:06:00;;;;;;;26.00;17.03;;;;;;;;;;5038822;28;20522;-73
2023/02/11 00:08:26;;;;;;;28.02;16.77;;;;;;;;;;5039254;28;20411;-73
2023/02/11 00:10:56;;;;;;;24.30;15.23;;;;;;;;;;5039027;28;20174;-73
2023/02/11 00:13:22;;;;;;;26.05;16.98;;;;;;;;;;5039711;28;20177;-73
2023/02/11 00:15:49;;;;;;;24.55;16.05;;;;;;;;;;5038986;28;20240;-73
2023/02/11 00:18:15;;;;;;;25.75;16.10;;;;;;;;;;5039480;28;20197;-73
2023/02/11 00:20:41;;;;;;;32.75;17.45;;;;;;;;;;5038813;28;20177;-73
2023/02/11 00:23:07;;;;;;;25.90;16.10;;;;;;;;;;5038462;28;20197;-73
2023/02/11 00:25:36;;;;;;;26.83;16.42;;;;;;;;;;5039134;28;20197;-73
2023/02/11 00:28:02;;;;;;;22.70;14.70;;;;;;;;;;5039067;28;20205;-73
2023/02/11 00:30:28;;;;;;;23.70;15.18;;;;;;;;;;5038676;28;20206;-73
2023/02/11 00:32:54;;;;;;;30.53;18.87;;;;;;;;;;5037394;28;20186;-73
2023/02/11 00:35:20;;;;;;;37.17;19.03;;;;;;;;;;5038718;28;20411;-73
2023/02/11 00:37:45;;;;;;;24.67;17.40;;;;;;;;;;5039307;28;20396;-73
2023/02/11 00:40:12;;;;;;;23.80;17.13;;;;;;;;;;5038363;28;20404;-72
2023/02/11 00:42:38;;;;;;;28.58;15.45;;;;;;;;;;5038918;28;20406;-73
2023/02/11 00:45:04;;;;;;;31.03;18.33;;;;;;;;;;5038458;28;20185;-72
2023/02/11 00:47:30;;;;;;;29.70;17.52;;;;;;;;;;5038547;28;20461;-73
2023/02/11 00:49:56;;;;;;;30.20;16.13;;;;;;;;;;5038289;28;20193;-72
2023/02/11 00:52:22;;;;;;;30.47;17.73;;;;;;;;;;5038623;28;20868;-72
2023/02/11 00:54:47;;;;;;;29.27;18.07;;;;;;;;;;5038551;28;20551;-75
2023/02/11 00:57:13;;;;;;;27.07;16.77;;;;;;;;;;5038889;28;20406;-73
2023/02/11 00:59:39;;;;;;;32.57;17.50;;;;;;;;;;5038234;28;20451;-73
2023/02/11 01:02:05;;;;;;;27.42;17.52;;;;;;;;;;5037651;28;20411;-73
2023/02/11 01:04:31;;;;;;;30.95;16.52;;;;;;;;;;5038503;28;20176;-73
2023/02/11 01:06:57;;;;;;;42.60;17.57;;;;;;;;;;5037908;28;20688;-73
2023/02/11 01:09:23;;;;;;;28.70;18.47;;;;;;;;;;5038173;28;20420;-73
2023/02/11 01:11:49;;;;;;;34.10;17.50;;;;;;;;;;5038329;28;20445;-74
2023/02/11 01:14:15;;;;;;;28.83;17.97;;;;;;;;;;5037642;28;20463;-73
2023/02/11 01:16:42;;;;;;;26.00;18.15;;;;;;;;;;5037913;28;20512;-73
2023/02/11 01:19:08;;;;;;;28.08;18.05;;;;;;;;;;5037810;28;20504;-73
2023/02/11 01:21:34;;;;;;;33.15;18.35;;;;;;;;;;5037973;28;20200;-73
2023/02/11 01:24:00;;;;;;;29.95;17.88;;;;;;;;;;5037943;28;20170;-73
2023/02/11 01:26:26;;;;;;;27.07;18.50;;;;;;;;;;5038169;28;20206;-73
2023/02/11 01:28:52;;;;;;;27.77;18.20;;;;;;;;;;5037841;28;20451;-73
2023/02/11 01:31:18;;;;;;;30.95;19.20;;;;;;;;;;5037872;28;20846;-73
2023/02/11 01:33:44;;;;;;;33.13;18.87;;;;;;;;;;5037793;28;20177;-73
2023/02/11 01:36:10;;;;;;;31.90;19.60;;;;;;;;;;5037365;28;20878;-73
2023/02/11 01:38:36;;;;;;;32.63;19.63;;;;;;;;;;5037704;28;20908;-73
2023/02/11 01:41:04;;;;;;;28.65;17.77;;;;;;;;;;5037338;28;20182;-73
2023/02/11 01:43:40;;;;;;;35.13;19.95;;;;;;;;;;5037048;28;20177;-73
2023/02/11 01:46:09;;;;;;;32.03;19.20;;;;;;;;;;5037379;28;20170;-73
2023/02/11 01:48:38;;;;;;;32.38;20.10;;;;;;;;;;5037157;28;20172;-73
2023/02/11 01:51:06;;;;;;;26.67;17.95;;;;;;;;;;5037462;28;20211;-73
2023/02/11 01:59:07;;;;;;;33.33;18.27;;;;;;;;;;5037048;28;20183;-73
2023/02/11 02:01:34;;;;;;;32.08;18.40;;;;;;;;;;5037461;28;20178;-73
2023/02/11 02:04:01;;;;;;;31.70;18.92;;;;;;;;;;5036961;28;20176;-72
2023/02/11 02:06:34;;;;;;;27.10;18.13;;;;;;;;;;5037735;28;20198;-73
2023/02/11 02:09:02;;;;;;;40.70;21.35;;;;;;;;;;5035906;28;20186;-73
2023/02/11 02:11:28;;;;;;;30.48;19.17;;;;;;;;;;5037080;28;20536;-72
2023/02/11 02:13:54;;;;;;;38.45;21.15;;;;;;;;;;5036736;28;20229;-73
2023/02/11 02:16:21;;;;;;;35.90;21.47;;;;;;;;;;5037434;28;20591;-73
2023/02/11 02:18:53;;;;;;;30.10;19.98;;;;;;;;;;5037642;28;20409;-73
2023/02/11 02:21:33;;;;;;;31.98;20.38;;;;;;;;;;5037271;28;20315;-73
2023/02/11 02:24:15;;;;;;;32.53;21.25;;;;;;;;;;5037114;28;20209;-72
2023/02/11 02:26:59;;;;;;;35.53;19.90;;;;;;;;;;5037185;28;20215;-72
2023/02/11 02:29:49;;;;;;;37.47;20.52;;;;;;;;;;5037311;28;20541;-72
2023/02/11 02:32:30;;;;;;;33.38;19.25;;;;;;;;;;5031669;28;20319;-73
2023/02/11 02:35:22;;;;;;;31.08;20.55;;;;;;;;;;5036769;28;20181;-73
2023/02/11 02:37:57;;;;;;;36.20;21.83;;;;;;;;;;5021449;28;20193;-73
2023/02/11 02:40:26;;;;;;;33.05;18.75;;;;;;;;;;5036496;28;20762;-73
2023/02/11 02:42:53;;;;;;;35.80;22.27;;;;;;;;;;5037064;28;20189;-73
2023/02/11 02:45:19;;;;;;;38.67;21.33;;;;;;;;;;5037011;28;20193;-73
2023/02/11 02:47:45;;;;;;;31.55;19.90;;;;;;;;;;5037107;28;20300;-72
2023/02/11 02:50:13;;;;;;;32.03;18.90;;;;;;;;;;5036825;28;20220;-73
2023/02/11 02:52:51;;;;;;;35.10;21.05;;;;;;;;;;5036753;28;20490;-73
2023/02/11 02:55:23;;;;;;;34.78;20.38;;;;;;;;;;5037192;28;20174;-73
2023/02/11 02:58:05;;;;;;;35.60;22.55;;;;;;;;;;5041125;28;20650;-72
2023/02/11 03:00:34;;;;;;;34.83;22.70;;;;;;;;;;5041398;28;20573;-73
2023/02/11 03:03:07;;;;;;;34.67;22.27;;;;;;;;;;5040940;28;20184;-73
2023/02/11 03:05:54;;;;;;;32.20;19.92;;;;;;;;;;5039842;28;20178;-73
2023/02/11 03:08:27;;;;;;;42.28;22.42;;;;;;;;;;5039748;28;20267;-73
2023/02/11 03:10:53;;;;;;;35.20;21.90;;;;;;;;;;5040810;28;20178;-73
2023/02/11 03:13:21;;;;;;;39.22;21.90;;;;;;;;;;5040534;28;20183;-73
2023/02/11 03:15:50;;;;;;;34.85;22.60;;;;;;;;;;5040375;28;20256;-73
2023/02/11 03:18:17;;;;;;;45.28;24.60;;;;;;;;;;5040227;28;21056;-73
2023/02/11 03:20:44;;;;;;;31.90;22.00;;;;;;;;;;5039432;28;20174;-73
2023/02/11 03:23:13;;;;;;;40.05;23.55;;;;;;;;;;5039757;28;20174;-73
2023/02/11 03:25:41;;;;;;;38.33;22.88;;;;;;;;;;5040331;28;20178;-73
2023/02/11 03:28:13;;;;;;;39.70;23.17;;;;;;;;;;5040078;28;20202;-73
2023/02/11 03:30:42;;;;;;;32.50;20.73;;;;;;;;;;5040305;28;20193;-73
2023/02/11 03:33:19;;;;;;;39.95;21.05;;;;;;;;;;5039902;28;20253;-73
2023/02/11 03:35:49;;;;;;;36.20;22.02;;;;;;;;;;5039865;28;20166;-73
2023/02/11 03:38:20;;;;;;;36.42;21.17;;;;;;;;;;5039644;28;20181;-73
2023/02/11 03:40:46;;;;;;;34.45;21.38;;;;;;;;;;5039987;28;20257;-72
2023/02/11 03:43:16;;;;;;;33.72;21.20;;;;;;;;;;5040104;28;20236;-73
2023/02/11 03:45:43;;;;;;;39.20;21.58;;;;;;;;;;5039849;28;20178;-73
2023/02/11 03:48:14;;;;;;;37.08;21.63;;;;;;;;;;5039132;28;20222;-72
2023/02/11 03:50:41;;;;;;;31.35;20.67;;;;;;;;;;5038895;28;20569;-72
2023/02/11 03:53:08;;;;;;;39.25;21.55;;;;;;;;;;5039466;28;20246;-72
2023/02/11 03:55:36;;;;;;;44.03;23.38;;;;;;;;;;5039619;28;20197;-73
2023/02/11 03:58:02;;;;;;;34.88;19.98;;;;;;;;;;5039031;28;20175;-73
2023/02/11 04:00:31;;;;;;;38.60;23.00;;;;;;;;;;5039776;28;20216;-73
2023/02/11 04:02:57;;;;;;;39.22;20.88;;;;;;;;;;5039750;28;20436;-73
2023/02/11 04:05:23;;;;;;;29.77;19.10;;;;;;;;;;5039674;28;20179;-73
2023/02/11 04:07:49;;;;;;;33.67;20.87;;;;;;;;;;5039780;28;21118;-72
2023/02/11 04:10:15;;;;;;;36.13;19.93;;;;;;;;;;5039129;28;20784;-73
2023/02/11 04:12:41;;;;;;;35.45;19.67;;;;;;;;;;5039562;28;20433;-73
2023/02/11 04:15:07;;;;;;;27.20;18.27;;;;;;;;;;5039190;28;20237;-73
2023/02/11 04:17:34;;;;;;;32.35;19.52;;;;;;;;;;5038994;28;20413;-73
2023/02/11 04:20:00;;;;;;;33.88;18.25;;;;;;;;;;5039531;28;20191;-73
2023/02/11 04:22:26;;;;;;;35.60;19.30;;;;;;;;;;5038732;28;20239;-72
2023/02/11 04:24:51;;;;;;;29.47;15.03;;;;;;;;;;5039578;28;20819;-73
2023/02/11 04:27:17;;;;;;;29.83;18.40;;;;;;;;;;5038700;28;20475;-73
2023/02/11 04:29:43;;;;;;;33.83;20.60;;;;;;;;;;5039100;28;20441;-73
2023/02/11 04:32:10;;;;;;;29.70;17.73;;;;;;;;;;5039119;28;20455;-73
2023/02/11 04:34:36;;;;;;;37.72;18.48;;;;;;;;;;5038793;28;20409;-73
2023/02/11 04:37:02;;;;;;;30.40;18.33;;;;;;;;;;5038742;28;20167;-73
2023/02/11 04:39:28;;;;;;;29.60;17.73;;;;;;;;;;5039031;28;20527;-73
2023/02/11 04:41:54;;;;;;;32.90;17.25;;;;;;;;;;5038632;28;20178;-72
2023/02/11 04:44:20;;;;;;;27.03;17.20;;;;;;;;;;5038326;28;20196;-72
2023/02/11 04:46:47;;;;;;;23.53;14.63;;;;;;;;;;5039413;28;20460;-72
2023/02/11 04:49:13;;;;;;;32.78;18.00;;;;;;;;;;5038320;28;20409;-73
2023/02/11 04:51:40;;;;;;;34.78;18.30;;;;;;;;;;5038518;28;20175;-73
2023/02/11 04:54:06;;;;;;;27.77;17.60;;;;;;;;;;5038722;28;20181;-73
2023/02/11 04:56:32;;;;;;;31.27;17.70;;;;;;;;;;5038325;28;20565;-73
2023/02/11 04:58:58;;;;;;;29.53;16.93;;;;;;;;;;5038662;28;20189;-73
2023/02/11 05:01:24;;;;;;;32.07;20.00;;;;;;;;;;5038353;28;20480;-73
2023/02/11 05:03:50;;;;;;;30.92;18.20;;;;;;;;;;5036959;28;20419;-73
2023/02/11 05:06:16;;;;;;;39.28;20.25;;;;;;;;;;5036216;28;20630;-73
2023/02/11 05:08:42;;;;;;;36.87;18.47;;;;;;;;;;5038609;28;20178;-73
2023/02/11 05:11:14;;;;;;;35.87;20.93;;;;;;;;;;5038315;28;20397;-73
2023/02/11 05:13:39;;;;;;;37.42;20.70;;;;;;;;;;5038023;28;20952;-73
2023/02/11 05:16:06;;;;;;;34.60;19.90;;;;;;;;;;5037990;28;20182;-74
2023/02/11 05:18:31;;;;;;;37.33;19.77;;;;;;;;;;5037863;28;20412;-73
2023/02/11 05:20:57;;;;;;;31.87;18.40;;;;;;;;;;5038131;28;20176;-73
2023/02/11 05:23:23;;;;;;;38.53;21.40;;;;;;;;;;5038081;28;20960;-73
2023/02/11 05:25:49;;;;;;;43.70;20.95;;;;;;;;;;5038698;28;20443;-73
2023/02/11 05:28:15;;;;;;;44.53;22.73;;;;;;;;;;5037619;28;20219;-73
2023/02/11 05:30:41;;;;;;;38.72;20.45;;;;;;;;;;5038190;28;20178;-73
2023/02/11 05:33:07;;;;;;;43.97;20.60;;;;;;;;;;5037735;28;20657;-73
2023/02/11 05:35:33;;;;;;;37.38;20.95;;;;;;;;;;5037782;28;20409;-73
2023/02/11 05:37:59;;;;;;;39.90;20.63;;;;;;;;;;5038244;28;20255;-73
2023/02/11 05:40:25;;;;;;;35.05;21.65;;;;;;;;;;5037671;28;20416;-73
2023/02/11 05:42:51;;;;;;;58.20;20.50;;;;;;;;;;5037930;28;20180;-74
2023/02/11 05:45:17;;;;;;;37.73;21.80;;;;;;;;;;5035913;28;20202;-75
2023/02/11 05:47:43;;;;;;;37.72;21.02;;;;;;;;;;5037202;28;20953;-74
2023/02/11 05:50:09;;;;;;;41.75;21.80;;;;;;;;;;5037196;28;20185;-74
2023/02/11 05:52:35;;;;;;;32.37;20.50;;;;;;;;;;5037636;28;20178;-74
2023/02/11 05:55:01;;;;;;;30.92;19.92;;;;;;;;;;5037664;28;20419;-74
2023/02/11 05:57:27;;;;;;;41.13;20.35;;;;;;;;;;5037565;28;20180;-74
2023/02/11 05:59:53;;;;;;;30.95;20.50;;;;;;;;;;5037436;28;20737;-75
2023/02/11 06:02:19;;;;;;;37.40;23.43;;;;;;;;;;5037775;28;20210;-74
2023/02/11 06:04:45;;;;;;;48.30;22.80;;;;;;;;;;5037406;28;20397;-74
2023/02/11 06:07:11;;;;;;;37.57;21.20;;;;;;;;;;5037089;28;20465;-74
2023/02/11 06:09:37;;;;;;;40.57;23.17;;;;;;;;;;5037420;28;20409;-74
2023/02/11 06:12:03;;;;;;;43.10;23.50;;;;;;;;;;5037273;28;20409;-74
2023/02/11 06:14:31;;;;;;;40.63;22.95;;;;;;;;;;5036981;28;20315;-74
2023/02/11 06:16:57;;;;;;;39.08;21.95;;;;;;;;;;5037592;28;20265;-74
2023/02/11 06:19:23;;;;;;;38.85;21.73;;;;;;;;;;5035985;28;20205;-74
2023/02/11 06:21:49;;;;;;;36.77;23.03;;;;;;;;;;5037867;28;20208;-74
2023/02/11 06:24:15;;;;;;;44.30;23.13;;;;;;;;;;5037299;28;20420;-74
2023/02/11 06:26:41;;;;;;;39.97;24.08;;;;;;;;;;5036852;28;20986;-74
2023/02/11 06:29:07;;;;;;;35.63;22.85;;;;;;;;;;5037753;28;20265;-74
2023/02/11 06:31:33;;;;;;;35.65;23.15;;;;;;;;;;5038886;28;20174;-74
2023/02/11 06:34:00;;;;;;;37.83;22.00;;;;;;;;;;5041076;28;20202;-74
2023/02/11 06:36:26;;;;;;;42.08;22.05;;;;;;;;;;5040608;28;20393;-73
2023/02/11 06:38:52;;;;;;;40.72;21.88;;;;;;;;;;5040105;28;20183;-73
2023/02/11 06:41:21;;;;;;;36.58;24.20;;;;;;;;;;5041249;28;20181;-73
2023/02/11 06:43:47;;;;;;;34.15;22.00;;;;;;;;;;5040687;28;20189;-73
2023/02/11 06:46:14;;;;;;;37.13;23.00;;;;;;;;;;5040124;28;20186;-73
2023/02/11 06:48:40;;;;;;;43.25;24.48;;;;;;;;;;5040874;28;20268;-73
2023/02/11 06:51:08;;;;;;;40.03;24.42;;;;;;;;;;5040748;28;20681;-73
2023/02/11 06:53:38;;;;;;;39.08;22.73;;;;;;;;;;5040704;28;20584;-73
2023/02/11 06:56:05;;;;;;;37.60;24.33;;;;;;;;;;5041219;28;20178;-73
2023/02/11 06:58:31;;;;;;;40.88;24.10;;;;;;;;;;5039865;28;20232;-73
2023/02/11 07:00:57;;;;;;;51.33;24.92;;;;;;;;;;5040325;28;20186;-73
2023/02/11 07:03:23;;;;;;;41.33;25.23;;;;;;;;;;5040699;28;20187;-73
2023/02/11 07:05:49;;;;;;;42.08;23.83;;;;;;;;;;5040331;28;20230;-74
2023/02/11 07:08:15;;;;;;;40.22;24.05;;;;;;;;;;5039972;28;20198;-74
2023/02/11 07:10:41;;;;;;;37.60;21.65;;;;;;;;;;5039983;28;20185;-73
2023/02/11 07:13:07;;;;;;;36.45;22.00;;;;;;;;;;5040768;28;20272;-73
2023/02/11 07:15:33;;;;;;;41.60;23.57;;;;;;;;;;5040112;28;20307;-73
2023/02/11 07:17:59;;;;;;;40.73;25.77;;;;;;;;;;5040506;28;20412;-73
2023/02/11 07:20:25;;;;;;;40.40;23.00;;;;;;;;;;5039812;28;20495;-73
2023/02/11 07:22:51;;;;;;;45.90;25.05;;;;;;;;;;5040628;28;20640;-73
2023/02/11 07:25:17;;;;;;;42.33;24.20;;;;;;;;;;5039841;28;20186;-73
2023/02/11 07:27:43;;;;;;;46.70;25.67;;;;;;;;;;5040228;28;20816;-73
2023/02/11 07:30:10;;;;;;;44.07;24.10;;;;;;;;;;5040738;28;20440;-73
2023/02/11 07:32:36;;;;;;;43.80;24.40;;;;;;;;;;5040018;28;20419;-73
2023/02/11 07:35:02;;;;;;;45.20;25.47;;;;;;;;;;5040381;28;20173;-73
2023/02/11 07:37:28;;;;;;;45.15;23.30;;;;;;;;;;5039784;28;20404;-73
2023/02/11 07:39:54;;;;;;;44.30;26.50;;;;;;;;;;5039806;28;20220;-74
2023/02/11 07:42:20;;;;;;;49.75;22.70;;;;;;;;;;5039553;28;20457;-73
2023/02/11 07:44:46;;;;;;;42.30;24.67;;;;;;;;;;5040096;28;20182;-73
2023/02/11 07:47:12;;;;;;;50.13;25.30;;;;;;;;;;5039677;28;20504;-75
2023/02/11 07:49:38;;;;;;;41.03;24.50;;;;;;;;;;5040308;28;20424;-73
2023/02/11 07:52:04;;;;;;;42.53;23.97;;;;;;;;;;5040047;28;20407;-73
2023/02/11 07:54:30;;;;;;;41.65;24.77;;;;;;;;;;5039209;28;20431;-73
2023/02/11 07:56:56;;;;;;;44.37;24.67;;;;;;;;;;5039744;28;20178;-73
2023/02/11 07:59:23;;;;;;;51.22;25.67;;;;;;;;;;5039004;28;20401;-73
2023/02/11 08:01:50;;;;;;;50.35;27.77;;;;;;;;;;5040455;28;20225;-73
2023/02/11 08:04:16;;;;;;;47.60;26.13;;;;;;;;;;5039220;28;20172;-73
2023/02/11 08:06:43;;;;;;;50.90;27.48;;;;;;;;;;5039395;28;20580;-73
2023/02/11 08:09:11;;;;;;;50.22;27.40;;;;;;;;;;5039658;28;20641;-73
2023/02/11 08:11:37;;;;;;;40.30;24.55;;;;;;;;;;5039175;28;20264;-73
2023/02/11 08:14:03;;;;;;;45.53;26.48;;;;;;;;;;5039175;28;20270;-73
2023/02/11 08:16:30;;;;;;;49.53;26.10;;;;;;;;;;5039084;28;20180;-73
2023/02/11 08:18:57;;;;;;;47.03;26.02;;;;;;;;;;5039337;28;20255;-73
2023/02/11 08:21:23;;;;;;;42.33;24.02;;;;;;;;;;5039078;28;20175;-74
2023/02/11 08:23:49;;;;;;;47.53;25.95;;;;;;;;;;5039131;28;20209;-74
2023/02/11 08:26:18;;;;;;;45.53;22.92;;;;;;;;;;5038880;28;20580;-76
2023/02/11 08:28:45;;;;;;;50.30;24.52;;;;;;;;;;5038861;28;20220;-73
2023/02/11 08:31:15;;;;;;;44.03;25.77;;;;;;;;;;5038758;28;20207;-73
2023/02/11 08:33:41;;;;;;;46.53;22.20;;;;;;;;;;5038974;28;20178;-73
2023/02/11 08:36:08;;;;;;;50.08;23.50;;;;;;;;;;5038638;28;20210;-74
2023/02/11 08:38:34;;;;;;;44.10;23.05;;;;;;;;;;5038966;28;20174;-73
2023/02/11 08:41:00;;;;;;;39.83;24.90;;;;;;;;;;5039126;28;20185;-73
2023/02/11 08:43:26;;;;;;;46.15;25.13;;;;;;;;;;5038727;28;20771;-74
2023/02/11 08:45:52;;;;;;;41.53;22.57;;;;;;;;;;5038744;28;20177;-83
2023/02/11 08:48:18;;;;;;;42.50;23.60;;;;;;;;;;5036311;28;20456;-83
2023/02/11 08:50:44;;;;;;;42.53;25.10;;;;;;;;;;5036412;28;20197;-84
2023/02/11 08:53:10;;;;;;;45.93;25.73;;;;;;;;;;5036221;28;20429;-78
2023/02/11 08:55:36;;;;;;;50.53;24.83;;;;;;;;;;5056518;28;21278;-78
2023/02/11 08:58:02;;;;;;;42.90;23.30;;;;;;;;;;5040109;28;20191;-78
2023/02/11 09:00:29;;;;;;;31.93;18.37;;;;;;;;;;5056867;28;20499;-78
2023/02/11 09:02:55;;;;;;;50.67;25.90;;;;;;;;;;5056436;28;20808;-78
2023/02/11 09:05:21;;;;;;;42.27;26.27;;;;;;;;;;5055547;28;20185;-78
2023/02/11 09:07:47;;;;;;;43.00;25.17;;;;;;;;;;5056190;28;20939;-77
2023/02/11 09:10:13;;;;;;;48.67;25.47;;;;;;;;;;5055621;28;20185;-77
2023/02/11 09:12:39;;;;;;;41.78;22.10;;;;;;;;;;5057416;28;20497;-77
2023/02/11 09:15:05;;;;;;;47.40;25.47;;;;;;;;;;5057206;28;20275;-77
2023/02/11 09:17:31;;;;;;;51.45;25.77;;;;;;;;;;5055829;28;20416;-77
2023/02/11 09:19:57;;;;;;;44.85;24.73;;;;;;;;;;5056622;28;20173;-79
2023/02/11 09:22:23;;;;;;;42.60;22.97;;;;;;;;;;5055378;28;20715;-78
2023/02/11 09:24:49;;;;;;;46.33;25.70;;;;;;;;;;5045501;28;20482;-78
2023/02/11 09:27:15;;;;;;;39.00;25.13;;;;;;;;;;5057116;28;20459;-77
2023/02/11 09:29:41;;;;;;;46.20;25.00;;;;;;;;;;5040954;28;20186;-77
2023/02/11 09:32:07;;;;;;;49.88;23.35;;;;;;;;;;5036949;28;20408;-78
2023/02/11 09:34:33;;;;;;;47.28;25.25;;;;;;;;;;5035242;28;20185;-78
2023/02/11 09:36:59;;;;;;;42.77;24.13;;;;;;;;;;5037384;28;20178;-78
2023/02/11 09:39:26;;;;;;;53.57;25.13;;;;;;;;;;5036748;28;20844;-78
2023/02/11 09:41:52;;;;;;;44.25;23.27;;;;;;;;;;5036575;28;20466;-78
2023/02/11 09:44:20;;;;;;;43.00;24.00;;;;;;;;;;5036985;28;20190;-77
2023/02/11 09:46:49;;;;;;;42.10;25.23;;;;;;;;;;5035516;28;20963;-77
2023/02/11 09:49:19;;;;;;;42.40;23.08;;;;;;;;;;5036966;28;20232;-77
2023/02/11 09:51:48;;;;;;;37.33;21.70;;;;;;;;;;5035619;28;20182;-78
2023/02/11 09:54:33;;;;;;;40.55;24.30;;;;;;;;;;5068928;28;20181;-78
2023/02/11 09:56:59;;;;;;;43.65;22.92;;;;;;;;;;5076672;28;20176;-77
2023/02/11 09:59:25;;;;;;;45.90;22.35;;;;;;;;;;5076319;28;20184;-78
2023/02/11 10:01:58;;;;;;;43.20;19.97;;;;;;;;;;5076665;28;20170;-77
2023/02/11 10:04:24;;;;;;;39.08;22.35;;;;;;;;;;5075851;28;20410;-78
2023/02/11 10:07:01;;;;;;;54.57;24.90;;;;;;;;;;5075391;28;20691;-77
2023/02/11 10:09:30;;;;;;;38.63;20.92;;;;;;;;;;5076758;28;20486;-77
2023/02/11 10:12:15;;;;;;;39.15;23.63;;;;;;;;;;5076528;28;20194;-77
2023/02/11 10:14:50;;;;;;;43.08;22.55;;;;;;;;;;5075862;28;21076;-77
2023/02/11 10:17:30;;;;;;;42.45;21.38;;;;;;;;;;5076841;28;20216;-77
2023/02/11 10:19:59;;;;;;;44.13;21.77;;;;;;;;;;5076762;28;20192;-78
2023/02/11 10:22:28;;;;;;;40.33;20.95;;;;;;;;;;5055718;28;20709;-79
2023/02/11 10:24:57;;;;;;;39.45;23.58;;;;;;;;;;5035367;28;20581;-78
2023/02/11 10:27:27;;;;;;;39.83;22.70;;;;;;;;;;5042975;28;20198;-79
2023/02/11 10:30:01;;;;;;;43.97;22.83;;;;;;;;;;5056500;28;20170;-78
2023/02/11 10:32:35;;;;;;;39.17;21.10;;;;;;;;;;5057042;28;20268;-77
2023/02/11 10:35:14;;;;;;;39.97;21.50;;;;;;;;;;5056057;28;20177;-78
2023/02/11 10:37:39;;;;;;;36.08;20.60;;;;;;;;;;5056044;28;20204;-78
2023/02/11 10:40:06;;;;;;;35.70;21.30;;;;;;;;;;5055875;28;20664;-78
2023/02/11 10:42:32;;;;;;;42.60;22.10;;;;;;;;;;5055666;28;20771;-78
2023/02/11 10:45:06;;;;;;;41.70;22.98;;;;;;;;;;5054174;28;20189;-78
2023/02/11 10:47:36;;;;;;;42.22;24.20;;;;;;;;;;5054591;28;20204;-78
2023/02/11 10:50:14;;;;;;;39.80;22.25;;;;;;;;;;5055030;28;20188;-78
2023/02/11 10:52:40;;;;;;;41.92;23.20;;;;;;;;;;5055710;28;20195;-78
2023/02/11 10:55:09;;;;;;;44.25;22.10;;;;;;;;;;5055036;28;20204;-78
2023/02/11 10:57:37;;;;;;;36.30;21.35;;;;;;;;;;5056258;28;20178;-78
2023/02/11 11:00:22;;;;;;;43.50;21.05;;;;;;;;;;5055592;28;20173;-77
2023/02/11 11:02:55;;;;;;;40.25;21.55;;;;;;;;;;5055899;28;20181;-78
2023/02/11 11:05:26;;;;;;;43.88;22.58;;;;;;;;;;5056076;28;20180;-78
2023/02/11 11:08:00;;;;;;;27.85;15.88;;;;;;;;;;5052379;28;20228;-78
2023/02/11 11:10:42;;;;;;;41.70;21.35;;;;;;;;;;5054548;28;20231;-78
2023/02/11 11:13:23;;;;;;;44.13;23.10;;;;;;;;;;5055651;28;20219;-78
2023/02/11 11:16:06;;;;;;;41.58;22.85;;;;;;;;;;5055266;28;20241;-78
2023/02/11 11:18:32;;;;;;;43.17;22.92;;;;;;;;;;5058999;28;20319;-78
2023/02/11 11:21:00;;;;;;;43.63;24.30;;;;;;;;;;5060487;28;20185;-78
2023/02/11 11:23:26;;;;;;;43.92;23.55;;;;;;;;;;5058427;28;20942;-78
2023/02/11 11:26:10;;;;;;;39.65;22.80;;;;;;;;;;5059606;28;20181;-78
2023/02/11 11:28:40;;;;;;;41.95;22.85;;;;;;;;;;5058988;28;20558;-78
2023/02/11 11:31:12;;;;;;;39.38;23.88;;;;;;;;;;5059837;28;20176;-78
2023/02/11 11:33:41;;;;;;;38.15;23.60;;;;;;;;;;5050484;28;20177;-78
2023/02/11 11:36:09;;;;;;;41.90;23.60;;;;;;;;;;5058838;28;20236;-78
2023/02/11 11:38:36;;;;;;;43.55;24.45;;;;;;;;;;5058402;28;20176;-78
2023/02/11 11:41:14;;;;;;;38.47;22.77;;;;;;;;;;5058938;28;20174;-78
2023/02/11 11:43:53;;;;;;;44.85;22.70;;;;;;;;;;5057190;28;20625;-78
2023/02/11 11:46:23;;;;;;;42.92;23.65;;;;;;;;;;5058866;28;20160;-78
2023/02/11 11:48:50;;;;;;;36.75;22.35;;;;;;;;;;5057234;28;20597;-78
2023/02/11 11:51:16;;;;;;;42.38;22.05;;;;;;;;;;5058747;28;20175;-78
2023/02/11 11:53:45;;;;;;;39.22;24.20;;;;;;;;;;5058436;28;20600;-78
2023/02/11 11:56:11;;;;;;;41.15;24.85;;;;;;;;;;5058829;28;20181;-77
2023/02/11 11:58:38;;;;;;;47.88;24.70;;;;;;;;;;5057470;28;20231;-78
2023/02/11 12:01:10;;;;;;;48.67;25.00;;;;;;;;;;5056718;28;20201;-78
2023/02/11 12:03:55;;;;;;;49.70;25.45;;;;;;;;;;5056840;28;20521;-77
2023/02/11 12:06:24;;;;;;;48.70;23.23;;;;;;;;;;5058509;28;20178;-77
2023/02/11 12:09:08;;;;;;;43.55;24.30;;;;;;;;;;5057643;28;20189;-78
2023/02/11 12:11:37;;;;;;;45.15;26.02;;;;;;;;;;5057787;28;20177;-78
2023/02/11 12:14:03;;;;;;;47.00;27.08;;;;;;;;;;5056960;28;20578;-78
2023/02/11 12:16:42;;;;;;;42.47;25.97;;;;;;;;;;5058428;28;20189;-78
2023/02/11 12:19:18;;;;;;;42.30;23.90;;;;;;;;;;5058405;28;20407;-78
2023/02/11 12:22:03;;;;;;;45.33;25.65;;;;;;;;;;5049423;28;20210;-78
2023/02/11 12:24:42;;;;;;;43.50;24.00;;;;;;;;;;5038472;28;20241;-79
2023/02/11 12:27:18;;;;;;;43.45;25.30;;;;;;;;;;5038324;28;20228;-78
2023/02/11 12:30:02;;;;;;;50.38;26.60;;;;;;;;;;5038033;28;20304;-78
2023/02/11 12:32:42;;;;;;;47.58;26.33;;;;;;;;;;5037989;28;20229;-78
2023/02/11 12:35:26;;;;;;;55.30;28.25;;;;;;;;;;5054214;28;20568;-78
2023/02/11 12:38:07;;;;;;;55.10;26.73;;;;;;;;;;5058099;28;20177;-77
2023/02/11 12:40:39;;;;;;;50.13;27.40;;;;;;;;;;5056116;28;20265;-79
2023/02/11 12:43:15;;;;;;;45.95;25.88;;;;;;;;;;5057183;28;20171;-80
2023/02/11 12:45:41;;;;;;;44.22;23.65;;;;;;;;;;5056591;28;20517;-80
2023/02/11 12:48:07;;;;;;;43.45;23.75;;;;;;;;;;5057137;28;20307;-80
2023/02/11 12:50:52;;;;;;;49.30;28.17;;;;;;;;;;5055615;28;20283;-80
2023/02/11 12:53:37;;;;;;;48.35;26.40;;;;;;;;;;5055928;28;20208;-80
2023/02/11 12:56:06;;;;;;;46.17;26.65;;;;;;;;;;5055476;28;20177;-80
2023/02/11 12:58:34;;;;;;;42.63;23.92;;;;;;;;;;5056784;28;20179;-84
2023/02/11 13:01:04;;;;;;;47.30;24.95;;;;;;;;;;5055438;28;20580;-80
2023/02/11 13:03:34;;;;;;;50.47;28.65;;;;;;;;;;5055955;28;20179;-80
2023/02/11 13:06:07;;;;;;;45.22;24.30;;;;;;;;;;5056661;28;20197;-80
2023/02/11 13:08:35;;;;;;;49.83;27.20;;;;;;;;;;5055544;28;20209;-80
2023/02/11 13:11:03;;;;;;;57.55;27.48;;;;;;;;;;5056873;28;20199;-79
2023/02/11 13:13:32;;;;;;;48.20;27.13;;;;;;;;;;5036083;28;20569;-80
2023/02/11 13:16:05;;;;;;;46.58;23.75;;;;;;;;;;5036709;28;20182;-79
2023/02/11 13:18:43;;;;;;;48.00;26.17;;;;;;;;;;5053422;28;20182;-79
2023/02/11 13:21:12;;;;;;;43.40;25.45;;;;;;;;;;5056763;28;20259;-79
2023/02/11 13:23:44;;;;;;;52.72;27.27;;;;;;;;;;5056026;28;20569;-80
2023/02/11 13:26:16;;;;;;;50.80;26.92;;;;;;;;;;5055615;28;20173;-79
2023/02/11 13:28:49;;;;;;;49.65;27.30;;;;;;;;;;5056473;28;20699;-80
2023/02/11 13:31:18;;;;;;;45.53;25.65;;;;;;;;;;5056774;28;20180;-79
2023/02/11 13:33:44;;;;;;;45.50;26.48;;;;;;;;;;5055298;28;20176;-80
2023/02/11 13:36:18;;;;;;;50.85;28.10;;;;;;;;;;5055143;28;20577;-80
2023/02/11 13:38:52;;;;;;;48.60;26.77;;;;;;;;;;5054523;28;20326;-80
2023/02/11 13:41:29;;;;;;;48.13;25.77;;;;;;;;;;5055587;28;20574;-79
2023/02/11 13:43:58;;;;;;;53.83;26.15;;;;;;;;;;5055770;28;20167;-79
2023/02/11 13:46:25;;;;;;;54.75;28.63;;;;;;;;;;5055947;28;20265;-79
2023/02/11 13:48:52;;;;;;;50.78;28.83;;;;;;;;;;5054653;28;20182;-79
2023/02/11 13:51:33;;;;;;;47.03;26.83;;;;;;;;;;5054558;28;20186;-79
2023/02/11 13:53:59;;;;;;;51.95;29.50;;;;;;;;;;5056204;28;20239;-80
2023/02/11 13:56:30;;;;;;;52.35;28.10;;;;;;;;;;5054571;28;20625;-79
2023/02/11 13:58:57;;;;;;;53.45;26.30;;;;;;;;;;5054145;28;20173;-79
2023/02/11 14:01:41;;;;;;;46.33;26.10;;;;;;;;;;5054017;28;20227;-80
2023/02/11 14:10:32;;;;;;;57.00;26.15;;;;;;;;;;5056105;28;20205;-78
2023/02/11 14:13:05;;;;;;;48.13;26.15;;;;;;;;;;5054987;28;20165;-78
2023/02/11 14:15:38;;;;;;;58.25;28.80;;;;;;;;;;5054997;28;20274;-78
2023/02/11 14:18:24;;;;;;;55.67;28.13;;;;;;;;;;5055384;28;20174;-78
2023/02/11 14:20:50;;;;;;;50.15;27.13;;;;;;;;;;5055682;28;20177;-78
2023/02/11 14:23:26;;;;;;;52.38;27.92;;;;;;;;;;5055611;28;20183;-78
2023/02/11 14:26:00;;;;;;;50.90;27.52;;;;;;;;;;5054949;28;20168;-78
2023/02/11 14:28:31;;;;;;;53.53;27.17;;;;;;;;;;5055370;28;20202;-78
2023/02/11 14:31:08;;;;;;;52.20;27.45;;;;;;;;;;5055263;28;20628;-78
2023/02/11 14:33:47;;;;;;;53.30;27.38;;;;;;;;;;5054446;28;20187;-78
2023/02/11 14:36:13;;;;;;;49.85;27.27;;;;;;;;;;5053890;28;20183;-78
2023/02/11 14:38:51;;;;;;;50.10;26.17;;;;;;;;;;5054280;28;20185;-78